sensor_id;sensor_type;location;lat;lon;timestamp;temperature;humidity
8463;DHT22;4268;52.506;13.462;2022-07-06T00:00:58;18.20;77.90
8463;DHT22;4268;52.506;13.462;2022-07-06T00:03:24;18.20;78.30
8463;DHT22;4268;52.506;13.462;2022-07-06T00:05:49;18.10;78.20
8463;DHT22;4268;52.506;13.462;2022-07-06T00:08:14;18.10;78.80
8463;DHT22;4268;52.506;13.462;2022-07-06T00:10:40;18.00;79.00
8463;DHT22;4268;52.506;13.462;2022-07-06T00:13:06;18.10;79.30
8463;DHT22;4268;52.506;13.462;2022-07-06T00:15:31;18.00;79.30
8463;DHT22;4268;52.506;13.462;2022-07-06T00:17:57;18.00;79.30
8463;DHT22;4268;52.506;13.462;2022-07-06T00:20:22;17.90;79.80
8463;DHT22;4268;52.506;13.462;2022-07-06T00:22:47;17.90;80.10
8463;DHT22;4268;52.506;13.462;2022-07-06T00:25:13;17.90;80.40
8463;DHT22;4268;52.506;13.462;2022-07-06T00:27:38;17.80;80.50
8463;DHT22;4268;52.506;13.462;2022-07-06T00:30:04;17.80;80.70
8463;DHT22;4268;52.506;13.462;2022-07-06T00:32:30;17.80;81.10
8463;DHT22;4268;52.506;13.462;2022-07-06T00:34:55;17.80;81.50
8463;DHT22;4268;52.506;13.462;2022-07-06T00:37:21;17.80;81.60
8463;DHT22;4268;52.506;13.462;2022-07-06T00:39:46;17.70;81.60
8463;DHT22;4268;52.506;13.462;2022-07-06T00:42:12;17.70;82.20
8463;DHT22;4268;52.506;13.462;2022-07-06T00:44:37;17.70;82.20
8463;DHT22;4268;52.506;13.462;2022-07-06T00:47:03;17.70;82.20
8463;DHT22;4268;52.506;13.462;2022-07-06T00:49:29;17.70;82.30
8463;DHT22;4268;52.506;13.462;2022-07-06T00:52:13;17.70;82.50
8463;DHT22;4268;52.506;13.462;2022-07-06T00:54:39;17.60;82.70
8463;DHT22;4268;52.506;13.462;2022-07-06T00:57:06;17.60;83.00
8463;DHT22;4268;52.506;13.462;2022-07-06T00:59:32;17.60;83.00
8463;DHT22;4268;52.506;13.462;2022-07-06T01:01:57;17.60;83.10
8463;DHT22;4268;52.506;13.462;2022-07-06T01:04:23;17.50;83.20
8463;DHT22;4268;52.506;13.462;2022-07-06T01:06:49;17.50;83.40
8463;DHT22;4268;52.506;13.462;2022-07-06T01:09:14;17.50;83.60
8463;DHT22;4268;52.506;13.462;2022-07-06T01:11:41;17.50;83.80
8463;DHT22;4268;52.506;13.462;2022-07-06T01:14:07;17.50;84.10
8463;DHT22;4268;52.506;13.462;2022-07-06T01:16:33;17.50;84.30
8463;DHT22;4268;52.506;13.462;2022-07-06T01:18:59;17.50;84.40
8463;DHT22;4268;52.506;13.462;2022-07-06T01:21:24;17.50;84.40
8463;DHT22;4268;52.506;13.462;2022-07-06T01:23:49;17.50;84.30
8463;DHT22;4268;52.506;13.462;2022-07-06T01:26:18;17.50;84.70
8463;DHT22;4268;52.506;13.462;2022-07-06T01:28:45;17.50;84.80
8463;DHT22;4268;52.506;13.462;2022-07-06T01:31:24;17.50;85.00
8463;DHT22;4268;52.506;13.462;2022-07-06T01:33:51;17.50;85.40
8463;DHT22;4268;52.506;13.462;2022-07-06T01:36:17;17.50;85.40
8463;DHT22;4268;52.506;13.462;2022-07-06T01:38:54;17.40;85.40
8463;DHT22;4268;52.506;13.462;2022-07-06T01:41:20;17.50;85.50
8463;DHT22;4268;52.506;13.462;2022-07-06T01:43:46;17.50;85.20
8463;DHT22;4268;52.506;13.462;2022-07-06T01:46:12;17.50;85.20
8463;DHT22;4268;52.506;13.462;2022-07-06T01:48:38;17.50;85.30
8463;DHT22;4268;52.506;13.462;2022-07-06T01:51:05;17.50;85.20
8463;DHT22;4268;52.506;13.462;2022-07-06T01:53:31;17.50;85.00
8463;DHT22;4268;52.506;13.462;2022-07-06T01:55:56;17.50;84.90
8463;DHT22;4268;52.506;13.462;2022-07-06T01:58:22;17.50;84.80
8463;DHT22;4268;52.506;13.462;2022-07-06T02:00:47;17.50;84.80
8463;DHT22;4268;52.506;13.462;2022-07-06T02:03:13;17.50;84.80
8463;DHT22;4268;52.506;13.462;2022-07-06T02:05:38;17.50;84.90
8463;DHT22;4268;52.506;13.462;2022-07-06T02:08:04;17.50;85.00
8463;DHT22;4268;52.506;13.462;2022-07-06T02:10:29;17.50;84.90
8463;DHT22;4268;52.506;13.462;2022-07-06T02:12:55;17.60;84.90
8463;DHT22;4268;52.506;13.462;2022-07-06T02:15:20;17.50;84.70
8463;DHT22;4268;52.506;13.462;2022-07-06T02:17:46;17.60;84.40
8463;DHT22;4268;52.506;13.462;2022-07-06T02:20:11;17.60;84.40
8463;DHT22;4268;52.506;13.462;2022-07-06T02:22:37;17.60;83.80
8463;DHT22;4268;52.506;13.462;2022-07-06T02:25:03;17.60;83.50
8463;DHT22;4268;52.506;13.462;2022-07-06T02:27:28;17.60;84.20
8463;DHT22;4268;52.506;13.462;2022-07-06T02:29:54;17.60;85.20
8463;DHT22;4268;52.506;13.462;2022-07-06T02:32:19;17.70;86.00
8463;DHT22;4268;52.506;13.462;2022-07-06T02:34:45;17.60;87.30
8463;DHT22;4268;52.506;13.462;2022-07-06T02:37:10;17.60;87.60
8463;DHT22;4268;52.506;13.462;2022-07-06T02:39:36;17.50;87.70
8463;DHT22;4268;52.506;13.462;2022-07-06T02:42:01;17.50;88.70
8463;DHT22;4268;52.506;13.462;2022-07-06T02:44:27;17.50;89.20
8463;DHT22;4268;52.506;13.462;2022-07-06T02:46:52;17.40;90.30
8463;DHT22;4268;52.506;13.462;2022-07-06T02:49:18;17.40;90.80
8463;DHT22;4268;52.506;13.462;2022-07-06T02:51:43;17.30;92.10
8463;DHT22;4268;52.506;13.462;2022-07-06T02:54:09;17.20;93.50
8463;DHT22;4268;52.506;13.462;2022-07-06T02:56:34;17.00;94.70
8463;DHT22;4268;52.506;13.462;2022-07-06T02:58:59;16.90;95.70
8463;DHT22;4268;52.506;13.462;2022-07-06T03:01:25;16.90;96.80
8463;DHT22;4268;52.506;13.462;2022-07-06T03:03:51;16.80;96.90
8463;DHT22;4268;52.506;13.462;2022-07-06T03:06:16;16.70;97.40
8463;DHT22;4268;52.506;13.462;2022-07-06T03:08:42;16.70;97.90
8463;DHT22;4268;52.506;13.462;2022-07-06T03:11:07;16.70;98.50
8463;DHT22;4268;52.506;13.462;2022-07-06T03:13:33;16.70;98.90
8463;DHT22;4268;52.506;13.462;2022-07-06T03:15:59;16.60;98.80
8463;DHT22;4268;52.506;13.462;2022-07-06T03:18:24;16.60;99.30
8463;DHT22;4268;52.506;13.462;2022-07-06T03:20:50;16.60;99.60
8463;DHT22;4268;52.506;13.462;2022-07-06T03:23:15;16.60;99.50
8463;DHT22;4268;52.506;13.462;2022-07-06T03:25:41;16.60;99.60
8463;DHT22;4268;52.506;13.462;2022-07-06T03:28:06;16.50;99.60
8463;DHT22;4268;52.506;13.462;2022-07-06T03:30:32;16.50;99.80
8463;DHT22;4268;52.506;13.462;2022-07-06T03:32:57;16.50;99.90
8463;DHT22;4268;52.506;13.462;2022-07-06T03:35:23;16.50;99.90
8463;DHT22;4268;52.506;13.462;2022-07-06T03:37:48;16.50;99.90
8463;DHT22;4268;52.506;13.462;2022-07-06T03:40:14;16.50;99.90
8463;DHT22;4268;52.506;13.462;2022-07-06T03:42:40;16.50;99.90
8463;DHT22;4268;52.506;13.462;2022-07-06T03:45:06;16.50;99.90
8463;DHT22;4268;52.506;13.462;2022-07-06T03:47:32;16.30;99.90
8463;DHT22;4268;52.506;13.462;2022-07-06T03:49:57;16.40;99.90
8463;DHT22;4268;52.506;13.462;2022-07-06T03:52:22;16.40;99.90
8463;DHT22;4268;52.506;13.462;2022-07-06T03:54:48;16.40;99.90
8463;DHT22;4268;52.506;13.462;2022-07-06T03:57:13;16.40;99.90
8463;DHT22;4268;52.506;13.462;2022-07-06T03:59:40;16.40;99.90
8463;DHT22;4268;52.506;13.462;2022-07-06T04:02:06;16.40;99.90
8463;DHT22;4268;52.506;13.462;2022-07-06T04:04:33;17.40;99.90
8463;DHT22;4268;52.506;13.462;2022-07-06T04:06:58;16.40;99.90
8463;DHT22;4268;52.506;13.462;2022-07-06T04:09:24;16.40;99.90
8463;DHT22;4268;52.506;13.462;2022-07-06T04:11:49;16.40;99.90
8463;DHT22;4268;52.506;13.462;2022-07-06T04:14:15;16.40;99.90
8463;DHT22;4268;52.506;13.462;2022-07-06T04:16:40;16.50;99.90
8463;DHT22;4268;52.506;13.462;2022-07-06T04:19:05;16.40;99.90
8463;DHT22;4268;52.506;13.462;2022-07-06T04:21:31;16.50;99.80
8463;DHT22;4268;52.506;13.462;2022-07-06T04:23:56;16.60;99.90
8463;DHT22;4268;52.506;13.462;2022-07-06T04:26:22;16.60;99.90
8463;DHT22;4268;52.506;13.462;2022-07-06T04:28:48;16.60;99.50
8463;DHT22;4268;52.506;13.462;2022-07-06T04:31:13;16.70;98.80
8463;DHT22;4268;52.506;13.462;2022-07-06T04:33:41;16.70;98.60
8463;DHT22;4268;52.506;13.462;2022-07-06T04:36:08;16.80;98.70
8463;DHT22;4268;52.506;13.462;2022-07-06T04:38:34;16.80;98.20
8463;DHT22;4268;52.506;13.462;2022-07-06T04:40:59;16.70;97.70
8463;DHT22;4268;52.506;13.462;2022-07-06T04:43:25;16.70;97.70
8463;DHT22;4268;52.506;13.462;2022-07-06T04:45:50;16.60;97.70
8463;DHT22;4268;52.506;13.462;2022-07-06T04:48:16;16.60;97.90
8463;DHT22;4268;52.506;13.462;2022-07-06T04:50:41;16.60;98.20
8463;DHT22;4268;52.506;13.462;2022-07-06T04:53:07;16.60;98.40
8463;DHT22;4268;52.506;13.462;2022-07-06T04:55:32;16.60;98.20
8463;DHT22;4268;52.506;13.462;2022-07-06T04:57:58;16.70;98.20
8463;DHT22;4268;52.506;13.462;2022-07-06T05:00:23;16.70;98.20
8463;DHT22;4268;52.506;13.462;2022-07-06T05:02:49;16.80;97.40
8463;DHT22;4268;52.506;13.462;2022-07-06T05:05:14;16.80;97.20
8463;DHT22;4268;52.506;13.462;2022-07-06T05:07:40;16.80;96.90
8463;DHT22;4268;52.506;13.462;2022-07-06T05:10:07;16.80;97.20
8463;DHT22;4268;52.506;13.462;2022-07-06T05:12:33;16.90;96.90
8463;DHT22;4268;52.506;13.462;2022-07-06T05:14:58;16.90;97.00
8463;DHT22;4268;52.506;13.462;2022-07-06T05:17:25;16.90;97.10
8463;DHT22;4268;52.506;13.462;2022-07-06T05:19:50;16.90;97.20
8463;DHT22;4268;52.506;13.462;2022-07-06T05:22:16;16.90;97.40
8463;DHT22;4268;52.506;13.462;2022-07-06T05:24:41;16.90;97.60
8463;DHT22;4268;52.506;13.462;2022-07-06T05:27:07;16.90;97.80
8463;DHT22;4268;52.506;13.462;2022-07-06T05:29:32;17.00;97.40
8463;DHT22;4268;52.506;13.462;2022-07-06T05:31:58;17.00;96.30
8463;DHT22;4268;52.506;13.462;2022-07-06T05:34:23;17.00;96.10
8463;DHT22;4268;52.506;13.462;2022-07-06T05:36:49;17.00;96.10
8463;DHT22;4268;52.506;13.462;2022-07-06T05:39:14;16.60;96.30
8463;DHT22;4268;52.506;13.462;2022-07-06T05:41:45;17.10;96.40
8463;DHT22;4268;52.506;13.462;2022-07-06T05:44:10;17.20;96.20
8463;DHT22;4268;52.506;13.462;2022-07-06T05:46:36;17.20;95.90
8463;DHT22;4268;52.506;13.462;2022-07-06T05:49:01;17.20;96.00
8463;DHT22;4268;52.506;13.462;2022-07-06T05:51:45;17.20;95.90
8463;DHT22;4268;52.506;13.462;2022-07-06T05:54:11;17.30;95.80
8463;DHT22;4268;52.506;13.462;2022-07-06T05:56:36;17.30;95.60
8463;DHT22;4268;52.506;13.462;2022-07-06T05:59:01;17.40;95.40
8463;DHT22;4268;52.506;13.462;2022-07-06T06:01:27;17.40;95.40
8463;DHT22;4268;52.506;13.462;2022-07-06T06:03:52;17.50;95.10
8463;DHT22;4268;52.506;13.462;2022-07-06T06:06:18;17.90;95.20
8463;DHT22;4268;52.506;13.462;2022-07-06T06:08:44;18.50;94.30
8463;DHT22;4268;52.506;13.462;2022-07-06T06:11:09;19.40;93.00
8463;DHT22;4268;52.506;13.462;2022-07-06T06:13:34;20.70;91.70
8463;DHT22;4268;52.506;13.462;2022-07-06T06:16:00;22.10;87.20
8463;DHT22;4268;52.506;13.462;2022-07-06T06:18:25;23.00;81.60
8463;DHT22;4268;52.506;13.462;2022-07-06T06:20:51;23.80;79.80
8463;DHT22;4268;52.506;13.462;2022-07-06T06:23:16;24.60;76.60
8463;DHT22;4268;52.506;13.462;2022-07-06T06:25:42;25.30;74.00
8463;DHT22;4268;52.506;13.462;2022-07-06T06:28:09;26.00;70.60
8463;DHT22;4268;52.506;13.462;2022-07-06T06:30:36;26.60;67.20
8463;DHT22;4268;52.506;13.462;2022-07-06T06:35:34;27.50;65.30
8463;DHT22;4268;52.506;13.462;2022-07-06T06:38:00;27.90;63.80
8463;DHT22;4268;52.506;13.462;2022-07-06T06:40:25;28.30;62.30
8463;DHT22;4268;52.506;13.462;2022-07-06T06:42:51;28.60;61.20
8463;DHT22;4268;52.506;13.462;2022-07-06T06:45:16;28.70;60.40
8463;DHT22;4268;52.506;13.462;2022-07-06T06:47:42;28.90;59.80
8463;DHT22;4268;52.506;13.462;2022-07-06T06:50:07;29.10;59.50
8463;DHT22;4268;52.506;13.462;2022-07-06T06:52:33;29.30;58.80
8463;DHT22;4268;52.506;13.462;2022-07-06T06:54:58;29.50;57.30
8463;DHT22;4268;52.506;13.462;2022-07-06T06:57:25;29.70;57.50
8463;DHT22;4268;52.506;13.462;2022-07-06T06:59:53;29.80;56.70
8463;DHT22;4268;52.506;13.462;2022-07-06T07:02:19;29.70;56.60
8463;DHT22;4268;52.506;13.462;2022-07-06T07:04:44;29.20;56.80
8463;DHT22;4268;52.506;13.462;2022-07-06T07:07:10;29.00;56.90
8463;DHT22;4268;52.506;13.462;2022-07-06T07:09:35;28.60;57.10
8463;DHT22;4268;52.506;13.462;2022-07-06T07:12:01;29.80;58.00
8463;DHT22;4268;52.506;13.462;2022-07-06T07:14:27;28.00;57.70
8463;DHT22;4268;52.506;13.462;2022-07-06T07:16:53;27.20;58.80
8463;DHT22;4268;52.506;13.462;2022-07-06T07:19:18;26.60;60.00
8463;DHT22;4268;52.506;13.462;2022-07-06T07:21:44;26.30;62.00
8463;DHT22;4268;52.506;13.462;2022-07-06T07:24:09;25.90;63.10
8463;DHT22;4268;52.506;13.462;2022-07-06T07:26:35;25.30;63.70
8463;DHT22;4268;52.506;13.462;2022-07-06T07:29:01;24.70;64.60
8463;DHT22;4268;52.506;13.462;2022-07-06T07:31:26;24.20;66.50
8463;DHT22;4268;52.506;13.462;2022-07-06T07:33:52;23.90;66.30
8463;DHT22;4268;52.506;13.462;2022-07-06T07:36:17;23.90;66.20
8463;DHT22;4268;52.506;13.462;2022-07-06T07:38:42;23.50;65.50
8463;DHT22;4268;52.506;13.462;2022-07-06T07:41:08;23.50;66.00
8463;DHT22;4268;52.506;13.462;2022-07-06T07:43:36;23.40;64.80
8463;DHT22;4268;52.506;13.462;2022-07-06T07:46:01;22.30;64.20
8463;DHT22;4268;52.506;13.462;2022-07-06T07:48:27;23.10;65.80
8463;DHT22;4268;52.506;13.462;2022-07-06T07:50:52;23.30;64.80
8463;DHT22;4268;52.506;13.462;2022-07-06T07:53:18;23.30;65.20
8463;DHT22;4268;52.506;13.462;2022-07-06T07:55:43;23.40;65.00
8463;DHT22;4268;52.506;13.462;2022-07-06T07:58:09;23.60;64.80
8463;DHT22;4268;52.506;13.462;2022-07-06T08:00:34;23.50;64.50
8463;DHT22;4268;52.506;13.462;2022-07-06T08:03:00;23.40;64.00
8463;DHT22;4268;52.506;13.462;2022-07-06T08:05:26;23.20;63.20
8463;DHT22;4268;52.506;13.462;2022-07-06T08:07:51;23.10;63.00
8463;DHT22;4268;52.506;13.462;2022-07-06T08:10:17;23.30;63.30
8463;DHT22;4268;52.506;13.462;2022-07-06T08:12:43;23.30;63.50
8463;DHT22;4268;52.506;13.462;2022-07-06T08:15:08;23.50;64.20
8463;DHT22;4268;52.506;13.462;2022-07-06T08:17:34;23.70;63.70
8463;DHT22;4268;52.506;13.462;2022-07-06T08:19:59;23.60;63.30
8463;DHT22;4268;52.506;13.462;2022-07-06T08:22:25;23.10;63.30
8463;DHT22;4268;52.506;13.462;2022-07-06T08:24:50;22.70;65.00
8463;DHT22;4268;52.506;13.462;2022-07-06T08:27:16;22.60;66.70
8463;DHT22;4268;52.506;13.462;2022-07-06T08:29:42;22.40;65.80
8463;DHT22;4268;52.506;13.462;2022-07-06T08:32:07;22.20;66.30
8463;DHT22;4268;52.506;13.462;2022-07-06T08:34:33;22.00;66.00
8463;DHT22;4268;52.506;13.462;2022-07-06T08:36:58;21.80;66.30
8463;DHT22;4268;52.506;13.462;2022-07-06T08:39:24;21.60;67.30
8463;DHT22;4268;52.506;13.462;2022-07-06T08:41:50;21.50;68.00
8463;DHT22;4268;52.506;13.462;2022-07-06T08:44:17;21.30;68.50
8463;DHT22;4268;52.506;13.462;2022-07-06T08:46:43;21.30;69.50
8463;DHT22;4268;52.506;13.462;2022-07-06T08:49:12;21.40;70.60
8463;DHT22;4268;52.506;13.462;2022-07-06T08:51:38;21.80;69.20
8463;DHT22;4268;52.506;13.462;2022-07-06T08:54:06;21.90;68.10
8463;DHT22;4268;52.506;13.462;2022-07-06T08:56:32;21.80;67.30
8463;DHT22;4268;52.506;13.462;2022-07-06T08:58:58;21.70;67.30
8463;DHT22;4268;52.506;13.462;2022-07-06T09:01:24;21.50;65.10
8463;DHT22;4268;52.506;13.462;2022-07-06T09:03:50;21.20;64.90
8463;DHT22;4268;52.506;13.462;2022-07-06T09:06:26;20.90;63.40
8463;DHT22;4268;52.506;13.462;2022-07-06T09:08:56;20.70;62.80
8463;DHT22;4268;52.506;13.462;2022-07-06T09:11:22;20.60;64.10
8463;DHT22;4268;52.506;13.462;2022-07-06T09:13:49;20.70;63.80
8463;DHT22;4268;52.506;13.462;2022-07-06T09:16:16;20.70;63.40
8463;DHT22;4268;52.506;13.462;2022-07-06T09:18:45;20.80;63.30
8463;DHT22;4268;52.506;13.462;2022-07-06T09:21:11;20.80;62.10
8463;DHT22;4268;52.506;13.462;2022-07-06T09:23:47;20.80;62.60
8463;DHT22;4268;52.506;13.462;2022-07-06T09:26:12;20.70;64.00
8463;DHT22;4268;52.506;13.462;2022-07-06T09:28:42;20.80;63.50
8463;DHT22;4268;52.506;13.462;2022-07-06T09:31:08;20.90;64.90
8463;DHT22;4268;52.506;13.462;2022-07-06T09:33:35;21.00;64.10
8463;DHT22;4268;52.506;13.462;2022-07-06T09:36:00;21.10;64.00
8463;DHT22;4268;52.506;13.462;2022-07-06T09:38:28;21.10;61.20
8463;DHT22;4268;52.506;13.462;2022-07-06T09:40:54;21.20;61.80
8463;DHT22;4268;52.506;13.462;2022-07-06T09:43:24;21.20;60.80
8463;DHT22;4268;52.506;13.462;2022-07-06T09:45:51;21.10;60.20
8463;DHT22;4268;52.506;13.462;2022-07-06T09:48:19;21.00;60.20
8463;DHT22;4268;52.506;13.462;2022-07-06T09:51:01;20.90;59.60
8463;DHT22;4268;52.506;13.462;2022-07-06T09:53:35;20.70;60.20
8463;DHT22;4268;52.506;13.462;2022-07-06T09:56:01;20.60;60.80
8463;DHT22;4268;52.506;13.462;2022-07-06T09:58:27;20.60;61.00
8463;DHT22;4268;52.506;13.462;2022-07-06T10:00:53;21.40;62.70
8463;DHT22;4268;52.506;13.462;2022-07-06T10:03:18;20.80;63.30
8463;DHT22;4268;52.506;13.462;2022-07-06T10:05:46;20.90;62.40
8463;DHT22;4268;52.506;13.462;2022-07-06T10:08:13;21.00;62.20
8463;DHT22;4268;52.506;13.462;2022-07-06T10:10:40;21.10;60.10
8463;DHT22;4268;52.506;13.462;2022-07-06T10:13:07;21.00;60.80
8463;DHT22;4268;52.506;13.462;2022-07-06T10:15:34;21.00;62.20
8463;DHT22;4268;52.506;13.462;2022-07-06T10:18:02;21.00;62.80
8463;DHT22;4268;52.506;13.462;2022-07-06T10:20:30;20.90;62.90
8463;DHT22;4268;52.506;13.462;2022-07-06T10:22:59;20.80;63.30
8463;DHT22;4268;52.506;13.462;2022-07-06T10:25:25;20.80;64.20
8463;DHT22;4268;52.506;13.462;2022-07-06T10:27:51;20.90;63.60
8463;DHT22;4268;52.506;13.462;2022-07-06T10:30:18;20.90;63.60
8463;DHT22;4268;52.506;13.462;2022-07-06T10:32:46;20.90;64.90
8463;DHT22;4268;52.506;13.462;2022-07-06T10:35:13;21.00;65.00
8463;DHT22;4268;52.506;13.462;2022-07-06T10:37:39;21.00;65.20
8463;DHT22;4268;52.506;13.462;2022-07-06T10:40:06;21.10;65.40
8463;DHT22;4268;52.506;13.462;2022-07-06T10:42:57;21.20;65.30
8463;DHT22;4268;52.506;13.462;2022-07-06T10:50:39;21.30;64.90
8463;DHT22;4268;52.506;13.462;2022-07-06T10:55:47;21.40;65.40
8463;DHT22;4268;52.506;13.462;2022-07-06T10:58:37;21.40;64.90
8463;DHT22;4268;52.506;13.462;2022-07-06T11:01:05;21.40;63.30
8463;DHT22;4268;52.506;13.462;2022-07-06T11:06:08;21.50;62.80
8463;DHT22;4268;52.506;13.462;2022-07-06T11:08:42;21.60;64.20
8463;DHT22;4268;52.506;13.462;2022-07-06T11:11:18;21.70;64.10
8463;DHT22;4268;52.506;13.462;2022-07-06T11:13:53;21.70;64.20
8463;DHT22;4268;52.506;13.462;2022-07-06T11:16:21;21.80;64.20
8463;DHT22;4268;52.506;13.462;2022-07-06T11:19:10;21.90;63.60
8463;DHT22;4268;52.506;13.462;2022-07-06T11:21:55;21.90;63.20
8463;DHT22;4268;52.506;13.462;2022-07-06T11:24:28;21.90;64.10
8463;DHT22;4268;52.506;13.462;2022-07-06T11:26:55;22.00;64.60
8463;DHT22;4268;52.506;13.462;2022-07-06T11:29:22;22.00;64.80
8463;DHT22;4268;52.506;13.462;2022-07-06T11:31:52;21.90;63.30
8463;DHT22;4268;52.506;13.462;2022-07-06T11:34:24;21.90;64.50
8463;DHT22;4268;52.506;13.462;2022-07-06T11:37:09;21.80;64.30
8463;DHT22;4268;52.506;13.462;2022-07-06T11:39:36;21.70;65.30
8463;DHT22;4268;52.506;13.462;2022-07-06T11:42:02;21.70;65.70
8463;DHT22;4268;52.506;13.462;2022-07-06T11:44:29;21.70;65.90
8463;DHT22;4268;52.506;13.462;2022-07-06T11:46:55;21.60;63.40
8463;DHT22;4268;52.506;13.462;2022-07-06T11:49:27;21.60;63.80
8463;DHT22;4268;52.506;13.462;2022-07-06T11:51:52;21.50;61.30
8463;DHT22;4268;52.506;13.462;2022-07-06T11:54:20;21.60;60.90
8463;DHT22;4268;52.506;13.462;2022-07-06T11:56:57;21.70;60.70
8463;DHT22;4268;52.506;13.462;2022-07-06T11:59:26;21.80;60.80
8463;DHT22;4268;52.506;13.462;2022-07-06T12:02:09;21.80;60.90
8463;DHT22;4268;52.506;13.462;2022-07-06T12:04:37;21.80;61.40
8463;DHT22;4268;52.506;13.462;2022-07-06T12:07:05;21.80;60.80
8463;DHT22;4268;52.506;13.462;2022-07-06T12:09:34;21.90;60.40
8463;DHT22;4268;52.506;13.462;2022-07-06T12:12:00;21.90;61.70
8463;DHT22;4268;52.506;13.462;2022-07-06T12:14:30;22.00;61.90
8463;DHT22;4268;52.506;13.462;2022-07-06T12:16:56;21.90;62.90
8463;DHT22;4268;52.506;13.462;2022-07-06T12:19:27;21.90;63.50
8463;DHT22;4268;52.506;13.462;2022-07-06T12:21:52;21.90;63.30
8463;DHT22;4268;52.506;13.462;2022-07-06T12:24:22;21.90;63.30
8463;DHT22;4268;52.506;13.462;2022-07-06T12:26:48;21.90;63.50
8463;DHT22;4268;52.506;13.462;2022-07-06T12:29:14;21.80;63.60
8463;DHT22;4268;52.506;13.462;2022-07-06T12:31:43;21.70;63.60
8463;DHT22;4268;52.506;13.462;2022-07-06T12:34:14;21.70;63.60
8463;DHT22;4268;52.506;13.462;2022-07-06T12:36:54;21.70;63.80
8463;DHT22;4268;52.506;13.462;2022-07-06T12:39:22;21.60;63.40
8463;DHT22;4268;52.506;13.462;2022-07-06T12:41:53;21.60;63.80
8463;DHT22;4268;52.506;13.462;2022-07-06T12:44:23;21.60;64.20
8463;DHT22;4268;52.506;13.462;2022-07-06T12:46:51;21.70;64.60
8463;DHT22;4268;52.506;13.462;2022-07-06T12:49:26;21.80;65.00
8463;DHT22;4268;52.506;13.462;2022-07-06T12:54:40;22.00;64.40
8463;DHT22;4268;52.506;13.462;2022-07-06T12:57:16;22.00;63.10
8463;DHT22;4268;52.506;13.462;2022-07-06T12:59:48;22.00;62.70
8463;DHT22;4268;52.506;13.462;2022-07-06T13:02:23;22.00;62.30
8463;DHT22;4268;52.506;13.462;2022-07-06T13:07:31;22.10;62.90
8463;DHT22;4268;52.506;13.462;2022-07-06T13:09:58;22.10;63.00
8463;DHT22;4268;52.506;13.462;2022-07-06T13:12:24;22.10;63.70
8463;DHT22;4268;52.506;13.462;2022-07-06T13:14:50;22.00;62.20
8463;DHT22;4268;52.506;13.462;2022-07-06T13:17:16;21.90;63.00
8463;DHT22;4268;52.506;13.462;2022-07-06T13:19:42;22.00;63.60
8463;DHT22;4268;52.506;13.462;2022-07-06T13:22:07;22.10;63.60
8463;DHT22;4268;52.506;13.462;2022-07-06T13:24:33;22.10;63.90
8463;DHT22;4268;52.506;13.462;2022-07-06T13:26:58;22.10;64.10
8463;DHT22;4268;52.506;13.462;2022-07-06T13:29:24;22.10;64.90
8463;DHT22;4268;52.506;13.462;2022-07-06T13:31:50;22.10;63.90
8463;DHT22;4268;52.506;13.462;2022-07-06T13:34:16;22.10;62.20
8463;DHT22;4268;52.506;13.462;2022-07-06T13:36:42;22.10;62.30
8463;DHT22;4268;52.506;13.462;2022-07-06T13:39:08;22.20;61.70
8463;DHT22;4268;52.506;13.462;2022-07-06T13:41:35;22.20;61.60
8463;DHT22;4268;52.506;13.462;2022-07-06T13:44:00;22.20;62.40
8463;DHT22;4268;52.506;13.462;2022-07-06T13:46:27;22.20;61.90
8463;DHT22;4268;52.506;13.462;2022-07-06T13:48:53;22.30;61.80
8463;DHT22;4268;52.506;13.462;2022-07-06T13:51:19;22.20;60.80
8463;DHT22;4268;52.506;13.462;2022-07-06T13:53:45;22.20;60.60
8463;DHT22;4268;52.506;13.462;2022-07-06T13:56:11;22.10;60.50
8463;DHT22;4268;52.506;13.462;2022-07-06T13:58:36;22.10;59.90
8463;DHT22;4268;52.506;13.462;2022-07-06T14:01:03;22.00;59.20
8463;DHT22;4268;52.506;13.462;2022-07-06T14:03:29;22.00;60.40
8463;DHT22;4268;52.506;13.462;2022-07-06T14:05:58;22.00;59.40
8463;DHT22;4268;52.506;13.462;2022-07-06T14:08:26;22.00;59.00
8463;DHT22;4268;52.506;13.462;2022-07-06T14:10:52;22.00;60.00
8463;DHT22;4268;52.506;13.462;2022-07-06T14:13:18;22.10;60.10
8463;DHT22;4268;52.506;13.462;2022-07-06T14:15:44;22.20;60.50
8463;DHT22;4268;52.506;13.462;2022-07-06T14:18:09;22.20;59.80
8463;DHT22;4268;52.506;13.462;2022-07-06T14:20:35;22.30;59.50
8463;DHT22;4268;52.506;13.462;2022-07-06T14:23:00;22.40;60.50
8463;DHT22;4268;52.506;13.462;2022-07-06T14:25:26;22.50;58.80
8463;DHT22;4268;52.506;13.462;2022-07-06T14:27:51;22.40;58.00
8463;DHT22;4268;52.506;13.462;2022-07-06T14:30:17;22.30;58.40
8463;DHT22;4268;52.506;13.462;2022-07-06T14:32:42;22.20;59.50
8463;DHT22;4268;52.506;13.462;2022-07-06T14:35:10;22.10;59.80
8463;DHT22;4268;52.506;13.462;2022-07-06T14:37:35;22.10;60.50
8463;DHT22;4268;52.506;13.462;2022-07-06T14:40:01;22.10;60.50
8463;DHT22;4268;52.506;13.462;2022-07-06T14:42:27;22.10;60.60
8463;DHT22;4268;52.506;13.462;2022-07-06T14:44:52;22.10;60.80
8463;DHT22;4268;52.506;13.462;2022-07-06T14:47:18;22.10;60.50
8463;DHT22;4268;52.506;13.462;2022-07-06T14:49:43;22.00;61.50
8463;DHT22;4268;52.506;13.462;2022-07-06T14:52:09;22.00;62.00
8463;DHT22;4268;52.506;13.462;2022-07-06T14:54:35;21.90;61.80
8463;DHT22;4268;52.506;13.462;2022-07-06T14:57:02;21.90;62.00
8463;DHT22;4268;52.506;13.462;2022-07-06T14:59:32;21.80;62.20
8463;DHT22;4268;52.506;13.462;2022-07-06T15:01:57;21.70;62.30
8463;DHT22;4268;52.506;13.462;2022-07-06T15:04:23;21.60;62.80
8463;DHT22;4268;52.506;13.462;2022-07-06T15:06:49;21.60;63.10
8463;DHT22;4268;52.506;13.462;2022-07-06T15:09:15;21.40;63.40
8463;DHT22;4268;52.506;13.462;2022-07-06T15:11:41;21.40;63.30
8463;DHT22;4268;52.506;13.462;2022-07-06T15:14:06;21.30;63.70
8463;DHT22;4268;52.506;13.462;2022-07-06T15:16:32;21.30;64.00
8463;DHT22;4268;52.506;13.462;2022-07-06T15:18:57;21.20;64.70
8463;DHT22;4268;52.506;13.462;2022-07-06T15:21:23;21.10;65.10
8463;DHT22;4268;52.506;13.462;2022-07-06T15:23:48;21.10;65.10
8463;DHT22;4268;52.506;13.462;2022-07-06T15:26:14;21.00;65.50
8463;DHT22;4268;52.506;13.462;2022-07-06T15:28:40;20.80;65.70
8463;DHT22;4268;52.506;13.462;2022-07-06T15:31:05;20.80;66.30
8463;DHT22;4268;52.506;13.462;2022-07-06T15:33:31;20.80;66.50
8463;DHT22;4268;52.506;13.462;2022-07-06T15:35:56;20.80;66.70
8463;DHT22;4268;52.506;13.462;2022-07-06T15:38:22;20.70;67.00
8463;DHT22;4268;52.506;13.462;2022-07-06T15:40:48;20.60;66.90
8463;DHT22;4268;52.506;13.462;2022-07-06T15:43:20;20.50;67.30
8463;DHT22;4268;52.506;13.462;2022-07-06T15:45:46;20.40;67.80
8463;DHT22;4268;52.506;13.462;2022-07-06T15:48:12;20.40;68.00
8463;DHT22;4268;52.506;13.462;2022-07-06T15:50:37;20.40;68.40
8463;DHT22;4268;52.506;13.462;2022-07-06T15:53:03;20.40;68.70
8463;DHT22;4268;52.506;13.462;2022-07-06T15:55:29;20.50;68.20
8463;DHT22;4268;52.506;13.462;2022-07-06T15:57:55;20.50;68.10
8463;DHT22;4268;52.506;13.462;2022-07-06T16:00:21;20.50;68.10